Marion, North Carolina
Current Conditions -  °F | °C
As of 4:55 AM on Friday 31 Oct 2014 (Local Time) from KFQD Reporting Station
Overcast Overcast  
Wind Chill: 44°   Ceiling: 6500
Heat Index: 46°   Visibility: 10mi
Dew Point: 40°   Wind: 5mph
Humidity: 79%   Direction: 330°NNW
Pressure: 29.96"   Gusts: NA
Location:  35.68°N, 82.01°W
Report Text: KFQD 310855Z AUTO 33004KT 10SM OVC065 08/04 A2996 RMK AO2 T00770043
Loading
Personal Weather Stations






























Interactive Weather Map
Tropical Storm Tracking
New forecast layout! Learn more

10-Day Weather Forecast

Advertisements
Track Severe Weather on mobile